KMHT/MHT METAR and TAF weather

Enter ICAO airport designator
Station Type Date Time Source
KMHT METAR 2019/04/24 15:53 UTC NOAA

KMHT 241553Z 26009G17KT 10SM BKN047 16/03 A2967 RMK AO2 SLP059 T01610028


Station Type Date Time Source
KMHT Decoded METAR 2019/04/24 15:53 UTC NOAA

MANCHESTER AIRPORT, NH, United States (KMHT) 42-56N 071-26W 81M
Apr 24, 2019 - 11:53 AM EDT / 2019.04.24 1553 UTC
Wind: from the W (260 degrees) at 10 MPH (9 KT) gusting to 20 MPH (17 KT):0
Visibility: 10 mile(s):0
Sky conditions: mostly cloudy
Temperature: 61.0 F (16.1 C)
Dew Point: 37.0 F (2.8 C)
Relative Humidity: 40%
Pressure (altimeter): 29.67 in. Hg (1004 hPa)
ob: KMHT 241553Z 26009G17KT 10SM BKN047 16/03 A2967 RMK AO2 SLP059 T01610028
cycle: 16

Station Type Date Time Source
KMHT TAF 2019/04/24 14:18 UTC NOAA

TAF
AMD KMHT 241415Z 2414/2512 28010KT P6SM SCT020 BKN060
FM241800 30012KT P6SM BKN045 BKN090
FM250200 32006KT P6SM SCT050 SCT100

Example: see airport list